Terminal Aerodrome Forecast
Issued by NWS

Home | Current Version | Previous Version | Text Only | Print | Product List | Glossary On
Versions: 1 2 3 4 5 6 7 8 9 10 11 12 13 14 15 16 17 18 19 20 21
020
FTUS43 KPAH 190522
TAFCGI
TAF
KCGI 190522Z 1906/2006 VRB04KT P6SM VCSH OVC035
     FM190900 08004KT 5SM SHRA BR SCT009 OVC015
     FM191400 10005KT 2SM -SHRA BR OVC005
     FM191900 15006KT 3SM HZ VCSH OVC009
     FM200000 20004KT 4SM BR OVC005=

USA.gov is the U.S. government's official web portal to all federal, state and local government web resources and services.